sensor_id;sensor_type;location;lat;lon;timestamp;P1;durP1;ratioP1;P2;durP2;ratioP2
78197;SDS011;67472;51.554;7.812;2023-06-01T00:02:32;4.90;;;2.53;;
78197;SDS011;67472;51.554;7.812;2023-06-01T00:05:18;6.28;;;3.10;;
78197;SDS011;67472;51.554;7.812;2023-06-01T00:08:06;4.05;;;3.08;;
78197;SDS011;67472;51.554;7.812;2023-06-01T00:10:52;5.70;;;2.88;;
78197;SDS011;67472;51.554;7.812;2023-06-01T00:13:38;8.52;;;3.25;;
78197;SDS011;67472;51.554;7.812;2023-06-01T00:16:25;5.40;;;3.53;;
78197;SDS011;67472;51.554;7.812;2023-06-01T00:19:12;4.22;;;3.00;;
78197;SDS011;67472;51.554;7.812;2023-06-01T00:21:59;7.47;;;3.42;;
78197;SDS011;67472;51.554;7.812;2023-06-01T00:24:46;10.82;;;2.95;;
78197;SDS011;67472;51.554;7.812;2023-06-01T00:27:32;5.47;;;2.90;;
78197;SDS011;67472;51.554;7.812;2023-06-01T00:30:19;6.60;;;2.92;;
78197;SDS011;67472;51.554;7.812;2023-06-01T00:33:05;5.10;;;2.40;;
78197;SDS011;67472;51.554;7.812;2023-06-01T00:35:52;5.35;;;3.10;;
78197;SDS011;67472;51.554;7.812;2023-06-01T00:38:38;5.90;;;2.90;;
78197;SDS011;67472;51.554;7.812;2023-06-01T00:41:27;6.03;;;2.85;;
78197;SDS011;67472;51.554;7.812;2023-06-01T00:44:13;4.30;;;2.58;;
78197;SDS011;67472;51.554;7.812;2023-06-01T00:46:59;4.97;;;2.90;;
78197;SDS011;67472;51.554;7.812;2023-06-01T00:49:46;3.90;;;2.63;;
78197;SDS011;67472;51.554;7.812;2023-06-01T00:52:32;5.30;;;3.15;;
78197;SDS011;67472;51.554;7.812;2023-06-01T00:55:19;4.30;;;3.17;;
78197;SDS011;67472;51.554;7.812;2023-06-01T00:58:07;7.85;;;3.33;;
78197;SDS011;67472;51.554;7.812;2023-06-01T01:00:54;5.00;;;3.60;;
78197;SDS011;67472;51.554;7.812;2023-06-01T01:03:40;8.48;;;3.88;;
78197;SDS011;67472;51.554;7.812;2023-06-01T01:06:34;8.95;;;3.83;;
78197;SDS011;67472;51.554;7.812;2023-06-01T01:09:36;6.10;;;3.78;;
78197;SDS011;67472;51.554;7.812;2023-06-01T01:12:29;8.15;;;4.15;;
78197;SDS011;67472;51.554;7.812;2023-06-01T01:15:21;6.90;;;4.22;;
78197;SDS011;67472;51.554;7.812;2023-06-01T01:18:15;7.57;;;4.40;;
78197;SDS011;67472;51.554;7.812;2023-06-01T01:21:06;6.85;;;3.92;;
78197;SDS011;67472;51.554;7.812;2023-06-01T01:24:19;8.43;;;3.83;;
78197;SDS011;67472;51.554;7.812;2023-06-01T01:27:17;9.13;;;3.72;;
78197;SDS011;67472;51.554;7.812;2023-06-01T01:30:17;7.40;;;3.38;;
78197;SDS011;67472;51.554;7.812;2023-06-01T01:33:08;5.50;;;3.85;;
78197;SDS011;67472;51.554;7.812;2023-06-01T01:35:55;5.78;;;3.50;;
78197;SDS011;67472;51.554;7.812;2023-06-01T01:38:42;5.75;;;4.40;;
78197;SDS011;67472;51.554;7.812;2023-06-01T01:41:29;4.60;;;3.97;;
78197;SDS011;67472;51.554;7.812;2023-06-01T01:44:15;6.05;;;4.60;;
78197;SDS011;67472;51.554;7.812;2023-06-01T01:47:05;9.27;;;5.20;;
78197;SDS011;67472;51.554;7.812;2023-06-01T01:49:59;8.95;;;5.15;;
78197;SDS011;67472;51.554;7.812;2023-06-01T01:52:52;11.13;;;5.13;;
78197;SDS011;67472;51.554;7.812;2023-06-01T01:55:40;9.48;;;5.95;;
78197;SDS011;67472;51.554;7.812;2023-06-01T01:58:27;9.73;;;6.63;;
78197;SDS011;67472;51.554;7.812;2023-06-01T02:01:14;13.68;;;6.82;;
78197;SDS011;67472;51.554;7.812;2023-06-01T02:04:03;14.90;;;7.82;;
78197;SDS011;67472;51.554;7.812;2023-06-01T02:06:51;17.05;;;8.82;;
78197;SDS011;67472;51.554;7.812;2023-06-01T02:09:38;15.48;;;8.57;;
78197;SDS011;67472;51.554;7.812;2023-06-01T02:12:27;14.95;;;8.20;;
78197;SDS011;67472;51.554;7.812;2023-06-01T02:15:13;20.20;;;9.82;;
78197;SDS011;67472;51.554;7.812;2023-06-01T02:18:00;15.45;;;8.75;;
78197;SDS011;67472;51.554;7.812;2023-06-01T02:20:48;18.92;;;10.20;;
78197;SDS011;67472;51.554;7.812;2023-06-01T02:23:35;17.80;;;10.82;;
78197;SDS011;67472;51.554;7.812;2023-06-01T02:26:25;18.02;;;10.35;;
78197;SDS011;67472;51.554;7.812;2023-06-01T02:29:12;24.48;;;12.05;;
78197;SDS011;67472;51.554;7.812;2023-06-01T02:31:59;25.95;;;13.40;;
78197;SDS011;67472;51.554;7.812;2023-06-01T02:34:45;21.65;;;12.77;;
78197;SDS011;67472;51.554;7.812;2023-06-01T02:37:34;23.50;;;13.00;;
78197;SDS011;67472;51.554;7.812;2023-06-01T02:40:20;28.95;;;13.10;;
78197;SDS011;67472;51.554;7.812;2023-06-01T02:43:07;31.88;;;14.27;;
78197;SDS011;67472;51.554;7.812;2023-06-01T02:45:53;24.55;;;13.63;;
78197;SDS011;67472;51.554;7.812;2023-06-01T02:48:40;26.67;;;14.93;;
78197;SDS011;67472;51.554;7.812;2023-06-01T02:51:26;38.05;;;16.05;;
78197;SDS011;67472;51.554;7.812;2023-06-01T02:54:31;29.60;;;15.00;;
78197;SDS011;67472;51.554;7.812;2023-06-01T02:57:24;30.08;;;16.05;;
78197;SDS011;67472;51.554;7.812;2023-06-01T03:00:15;37.03;;;16.80;;
78197;SDS011;67472;51.554;7.812;2023-06-01T03:03:05;36.35;;;18.30;;
78197;SDS011;67472;51.554;7.812;2023-06-01T03:05:51;35.30;;;18.25;;
78197;SDS011;67472;51.554;7.812;2023-06-01T03:09:10;38.42;;;19.35;;
78197;SDS011;67472;51.554;7.812;2023-06-01T03:12:22;36.90;;;19.70;;
78197;SDS011;67472;51.554;7.812;2023-06-01T03:15:08;33.35;;;18.58;;
78197;SDS011;67472;51.554;7.812;2023-06-01T03:17:55;36.13;;;20.13;;
78197;SDS011;67472;51.554;7.812;2023-06-01T03:20:42;38.05;;;19.00;;
78197;SDS011;67472;51.554;7.812;2023-06-01T03:23:28;42.25;;;20.08;;
78197;SDS011;67472;51.554;7.812;2023-06-01T03:26:15;48.47;;;20.38;;
78197;SDS011;67472;51.554;7.812;2023-06-01T03:29:04;39.58;;;20.00;;
78197;SDS011;67472;51.554;7.812;2023-06-01T03:31:52;36.25;;;19.70;;
78197;SDS011;67472;51.554;7.812;2023-06-01T03:34:41;42.60;;;19.83;;
78197;SDS011;67472;51.554;7.812;2023-06-01T03:37:27;37.25;;;20.90;;
78197;SDS011;67472;51.554;7.812;2023-06-01T03:40:13;41.35;;;21.92;;
78197;SDS011;67472;51.554;7.812;2023-06-01T03:43:00;37.60;;;20.95;;
78197;SDS011;67472;51.554;7.812;2023-06-01T03:45:48;37.88;;;20.80;;
78197;SDS011;67472;51.554;7.812;2023-06-01T03:48:35;45.03;;;21.38;;
78197;SDS011;67472;51.554;7.812;2023-06-01T03:51:21;42.53;;;21.63;;
78197;SDS011;67472;51.554;7.812;2023-06-01T03:54:07;40.67;;;21.88;;
78197;SDS011;67472;51.554;7.812;2023-06-01T03:56:54;33.78;;;21.00;;
78197;SDS011;67472;51.554;7.812;2023-06-01T03:59:41;42.00;;;22.42;;
78197;SDS011;67472;51.554;7.812;2023-06-01T04:02:29;37.63;;;21.60;;
78197;SDS011;67472;51.554;7.812;2023-06-01T04:05:16;40.42;;;20.88;;
78197;SDS011;67472;51.554;7.812;2023-06-01T04:08:02;46.72;;;24.92;;
78197;SDS011;67472;51.554;7.812;2023-06-01T04:10:49;45.85;;;24.05;;
78197;SDS011;67472;51.554;7.812;2023-06-01T04:13:35;41.10;;;22.92;;
78197;SDS011;67472;51.554;7.812;2023-06-01T04:16:21;51.20;;;24.17;;
78197;SDS011;67472;51.554;7.812;2023-06-01T04:19:09;53.28;;;25.75;;
78197;SDS011;67472;51.554;7.812;2023-06-01T04:21:56;47.20;;;25.05;;
78197;SDS011;67472;51.554;7.812;2023-06-01T04:24:42;42.92;;;22.65;;
78197;SDS011;67472;51.554;7.812;2023-06-01T04:27:28;34.25;;;21.90;;
78197;SDS011;67472;51.554;7.812;2023-06-01T04:30:15;37.35;;;21.27;;
78197;SDS011;67472;51.554;7.812;2023-06-01T04:33:02;42.97;;;21.70;;
78197;SDS011;67472;51.554;7.812;2023-06-01T04:35:52;41.00;;;21.25;;
78197;SDS011;67472;51.554;7.812;2023-06-01T04:38:40;38.90;;;22.42;;
78197;SDS011;67472;51.554;7.812;2023-06-01T04:41:27;43.97;;;22.02;;
78197;SDS011;67472;51.554;7.812;2023-06-01T04:44:16;37.72;;;21.67;;
78197;SDS011;67472;51.554;7.812;2023-06-01T04:47:03;34.17;;;20.48;;
78197;SDS011;67472;51.554;7.812;2023-06-01T04:49:49;35.70;;;21.95;;
78197;SDS011;67472;51.554;7.812;2023-06-01T04:52:37;36.75;;;21.33;;
78197;SDS011;67472;51.554;7.812;2023-06-01T04:55:24;37.08;;;22.48;;
78197;SDS011;67472;51.554;7.812;2023-06-01T04:58:11;33.17;;;21.23;;
78197;SDS011;67472;51.554;7.812;2023-06-01T05:00:58;38.95;;;21.88;;
78197;SDS011;67472;51.554;7.812;2023-06-01T05:03:45;37.90;;;21.42;;
78197;SDS011;67472;51.554;7.812;2023-06-01T05:06:31;33.22;;;21.75;;
78197;SDS011;67472;51.554;7.812;2023-06-01T05:09:19;36.17;;;21.48;;
78197;SDS011;67472;51.554;7.812;2023-06-01T05:12:05;33.00;;;20.67;;
78197;SDS011;67472;51.554;7.812;2023-06-01T05:14:52;37.10;;;21.63;;
78197;SDS011;67472;51.554;7.812;2023-06-01T05:17:42;36.75;;;23.08;;
78197;SDS011;67472;51.554;7.812;2023-06-01T05:20:32;37.92;;;20.92;;
78197;SDS011;67472;51.554;7.812;2023-06-01T05:23:18;45.53;;;22.23;;
78197;SDS011;67472;51.554;7.812;2023-06-01T05:26:06;38.65;;;22.15;;
78197;SDS011;67472;51.554;7.812;2023-06-01T05:28:53;31.80;;;20.30;;
78197;SDS011;67472;51.554;7.812;2023-06-01T05:31:41;40.40;;;21.75;;
78197;SDS011;67472;51.554;7.812;2023-06-01T05:34:27;37.08;;;21.38;;
78197;SDS011;67472;51.554;7.812;2023-06-01T05:37:14;34.30;;;20.42;;
78197;SDS011;67472;51.554;7.812;2023-06-01T05:40:01;37.22;;;21.23;;
78197;SDS011;67472;51.554;7.812;2023-06-01T05:42:53;38.55;;;22.42;;
78197;SDS011;67472;51.554;7.812;2023-06-01T05:45:40;33.38;;;20.75;;
78197;SDS011;67472;51.554;7.812;2023-06-01T05:48:26;39.30;;;21.77;;
78197;SDS011;67472;51.554;7.812;2023-06-01T05:51:13;41.10;;;22.55;;
78197;SDS011;67472;51.554;7.812;2023-06-01T05:54:00;34.63;;;20.48;;
78197;SDS011;67472;51.554;7.812;2023-06-01T05:56:47;36.70;;;19.98;;
78197;SDS011;67472;51.554;7.812;2023-06-01T05:59:36;34.78;;;21.13;;
78197;SDS011;67472;51.554;7.812;2023-06-01T06:02:25;32.92;;;20.80;;
78197;SDS011;67472;51.554;7.812;2023-06-01T06:05:17;38.60;;;19.95;;
78197;SDS011;67472;51.554;7.812;2023-06-01T06:08:06;33.50;;;20.40;;
78197;SDS011;67472;51.554;7.812;2023-06-01T06:10:55;35.97;;;21.08;;
78197;SDS011;67472;51.554;7.812;2023-06-01T06:13:41;30.13;;;19.30;;
78197;SDS011;67472;51.554;7.812;2023-06-01T06:16:29;32.85;;;19.17;;
78197;SDS011;67472;51.554;7.812;2023-06-01T06:19:16;28.83;;;18.33;;
78197;SDS011;67472;51.554;7.812;2023-06-01T06:22:02;30.42;;;18.65;;
78197;SDS011;67472;51.554;7.812;2023-06-01T06:24:49;34.13;;;19.52;;
78197;SDS011;67472;51.554;7.812;2023-06-01T06:27:35;31.77;;;19.38;;
78197;SDS011;67472;51.554;7.812;2023-06-01T06:30:22;31.58;;;19.25;;
78197;SDS011;67472;51.554;7.812;2023-06-01T06:33:11;31.35;;;18.83;;
78197;SDS011;67472;51.554;7.812;2023-06-01T06:35:57;28.98;;;17.38;;
78197;SDS011;67472;51.554;7.812;2023-06-01T06:38:43;27.67;;;18.02;;
78197;SDS011;67472;51.554;7.812;2023-06-01T06:41:29;29.08;;;18.13;;
78197;SDS011;67472;51.554;7.812;2023-06-01T06:44:16;23.17;;;16.27;;
78197;SDS011;67472;51.554;7.812;2023-06-01T06:47:03;29.35;;;17.85;;
78197;SDS011;67472;51.554;7.812;2023-06-01T06:49:51;28.95;;;16.77;;
78197;SDS011;67472;51.554;7.812;2023-06-01T06:52:39;26.77;;;16.85;;
78197;SDS011;67472;51.554;7.812;2023-06-01T06:55:25;27.40;;;16.48;;
78197;SDS011;67472;51.554;7.812;2023-06-01T06:58:12;26.30;;;16.63;;
78197;SDS011;67472;51.554;7.812;2023-06-01T07:00:59;25.95;;;16.52;;
78197;SDS011;67472;51.554;7.812;2023-06-01T07:03:49;24.40;;;15.15;;
78197;SDS011;67472;51.554;7.812;2023-06-01T07:06:37;25.27;;;17.05;;
78197;SDS011;67472;51.554;7.812;2023-06-01T07:09:24;21.60;;;15.68;;
78197;SDS011;67472;51.554;7.812;2023-06-01T07:12:10;25.25;;;15.45;;
78197;SDS011;67472;51.554;7.812;2023-06-01T07:14:56;26.60;;;16.13;;
78197;SDS011;67472;51.554;7.812;2023-06-01T07:17:43;29.88;;;17.38;;
78197;SDS011;67472;51.554;7.812;2023-06-01T07:20:29;22.65;;;16.10;;
78197;SDS011;67472;51.554;7.812;2023-06-01T07:23:17;18.77;;;13.50;;
78197;SDS011;67472;51.554;7.812;2023-06-01T07:26:03;21.58;;;14.57;;
78197;SDS011;67472;51.554;7.812;2023-06-01T07:28:50;22.33;;;14.70;;
78197;SDS011;67472;51.554;7.812;2023-06-01T07:31:37;29.17;;;15.95;;
78197;SDS011;67472;51.554;7.812;2023-06-01T07:34:23;21.33;;;15.38;;
78197;SDS011;67472;51.554;7.812;2023-06-01T07:37:10;23.02;;;14.40;;
78197;SDS011;67472;51.554;7.812;2023-06-01T07:39:58;23.35;;;14.30;;
78197;SDS011;67472;51.554;7.812;2023-06-01T07:42:44;22.50;;;14.90;;
78197;SDS011;67472;51.554;7.812;2023-06-01T07:45:31;38.10;;;21.48;;
78197;SDS011;67472;51.554;7.812;2023-06-01T07:48:17;23.73;;;16.02;;
78197;SDS011;67472;51.554;7.812;2023-06-01T07:51:04;23.05;;;14.70;;
78197;SDS011;67472;51.554;7.812;2023-06-01T07:53:52;23.48;;;13.82;;
78197;SDS011;67472;51.554;7.812;2023-06-01T07:56:43;21.58;;;13.77;;
78197;SDS011;67472;51.554;7.812;2023-06-01T07:59:30;41.42;;;16.75;;
78197;SDS011;67472;51.554;7.812;2023-06-01T08:02:17;22.02;;;14.55;;
78197;SDS011;67472;51.554;7.812;2023-06-01T08:05:05;21.10;;;13.77;;
78197;SDS011;67472;51.554;7.812;2023-06-01T08:07:52;20.20;;;13.93;;
78197;SDS011;67472;51.554;7.812;2023-06-01T08:10:41;26.13;;;13.90;;
78197;SDS011;67472;51.554;7.812;2023-06-01T08:13:29;27.40;;;13.27;;
78197;SDS011;67472;51.554;7.812;2023-06-01T08:16:16;20.80;;;13.02;;
78197;SDS011;67472;51.554;7.812;2023-06-01T08:19:02;19.85;;;12.30;;
78197;SDS011;67472;51.554;7.812;2023-06-01T08:21:48;21.40;;;13.63;;
78197;SDS011;67472;51.554;7.812;2023-06-01T08:24:35;21.58;;;12.52;;
78197;SDS011;67472;51.554;7.812;2023-06-01T08:27:21;23.25;;;13.27;;
78197;SDS011;67472;51.554;7.812;2023-06-01T08:30:10;17.80;;;11.65;;
78197;SDS011;67472;51.554;7.812;2023-06-01T08:32:56;22.83;;;12.75;;
78197;SDS011;67472;51.554;7.812;2023-06-01T08:35:43;23.60;;;13.23;;
78197;SDS011;67472;51.554;7.812;2023-06-01T08:38:29;23.42;;;13.18;;
78197;SDS011;67472;51.554;7.812;2023-06-01T08:41:17;25.17;;;14.55;;
78197;SDS011;67472;51.554;7.812;2023-06-01T08:44:10;23.85;;;13.27;;
78197;SDS011;67472;51.554;7.812;2023-06-01T08:47:04;23.63;;;12.65;;
78197;SDS011;67472;51.554;7.812;2023-06-01T08:49:51;19.73;;;11.80;;
78197;SDS011;67472;51.554;7.812;2023-06-01T08:52:38;18.25;;;11.23;;
78197;SDS011;67472;51.554;7.812;2023-06-01T08:55:29;17.92;;;11.15;;
78197;SDS011;67472;51.554;7.812;2023-06-01T08:58:15;20.13;;;11.30;;
78197;SDS011;67472;51.554;7.812;2023-06-01T09:01:02;16.40;;;11.75;;
78197;SDS011;67472;51.554;7.812;2023-06-01T09:03:50;13.73;;;10.50;;
78197;SDS011;67472;51.554;7.812;2023-06-01T09:06:37;18.13;;;10.90;;
78197;SDS011;67472;51.554;7.812;2023-06-01T09:09:23;19.83;;;11.43;;
78197;SDS011;67472;51.554;7.812;2023-06-01T09:12:16;23.40;;;12.80;;
78197;SDS011;67472;51.554;7.812;2023-06-01T09:15:06;22.98;;;11.38;;
78197;SDS011;67472;51.554;7.812;2023-06-01T09:18:04;21.77;;;12.30;;
78197;SDS011;67472;51.554;7.812;2023-06-01T09:20:53;17.40;;;10.38;;
78197;SDS011;67472;51.554;7.812;2023-06-01T09:23:41;16.38;;;11.13;;
78197;SDS011;67472;51.554;7.812;2023-06-01T09:26:28;15.35;;;10.45;;
78197;SDS011;67472;51.554;7.812;2023-06-01T09:29:16;17.80;;;11.07;;
78197;SDS011;67472;51.554;7.812;2023-06-01T09:32:03;17.45;;;10.35;;
78197;SDS011;67472;51.554;7.812;2023-06-01T09:34:50;17.60;;;11.35;;
78197;SDS011;67472;51.554;7.812;2023-06-01T09:37:37;14.32;;;10.30;;
78197;SDS011;67472;51.554;7.812;2023-06-01T09:40:24;17.15;;;11.52;;
78197;SDS011;67472;51.554;7.812;2023-06-01T09:43:21;22.13;;;11.48;;
78197;SDS011;67472;51.554;7.812;2023-06-01T09:46:08;22.65;;;12.00;;
78197;SDS011;67472;51.554;7.812;2023-06-01T09:49:07;17.48;;;11.07;;
78197;SDS011;67472;51.554;7.812;2023-06-01T09:51:53;18.33;;;10.15;;
78197;SDS011;67472;51.554;7.812;2023-06-01T09:55:04;21.17;;;11.80;;
78197;SDS011;67472;51.554;7.812;2023-06-01T09:57:51;20.02;;;11.38;;
78197;SDS011;67472;51.554;7.812;2023-06-01T10:00:38;19.63;;;11.52;;
78197;SDS011;67472;51.554;7.812;2023-06-01T10:03:25;20.23;;;10.82;;
78197;SDS011;67472;51.554;7.812;2023-06-01T10:06:12;19.23;;;11.07;;
78197;SDS011;67472;51.554;7.812;2023-06-01T10:09:00;19.33;;;10.73;;
78197;SDS011;67472;51.554;7.812;2023-06-01T10:11:48;17.80;;;10.75;;
78197;SDS011;67472;51.554;7.812;2023-06-01T10:14:37;23.80;;;11.27;;
78197;SDS011;67472;51.554;7.812;2023-06-01T10:17:24;21.52;;;11.50;;
78197;SDS011;67472;51.554;7.812;2023-06-01T10:20:11;15.77;;;10.32;;
78197;SDS011;67472;51.554;7.812;2023-06-01T10:22:58;18.65;;;11.30;;
78197;SDS011;67472;51.554;7.812;2023-06-01T10:25:46;15.00;;;11.32;;
78197;SDS011;67472;51.554;7.812;2023-06-01T10:28:37;14.18;;;10.43;;
78197;SDS011;67472;51.554;7.812;2023-06-01T10:31:31;21.80;;;10.57;;
78197;SDS011;67472;51.554;7.812;2023-06-01T10:37:23;18.27;;;10.30;;
78197;SDS011;67472;51.554;7.812;2023-06-01T10:40:11;18.95;;;9.85;;
78197;SDS011;67472;51.554;7.812;2023-06-01T10:43:05;18.23;;;9.77;;
78197;SDS011;67472;51.554;7.812;2023-06-01T10:45:54;18.45;;;10.70;;
78197;SDS011;67472;51.554;7.812;2023-06-01T10:48:51;16.80;;;10.15;;
78197;SDS011;67472;51.554;7.812;2023-06-01T10:51:38;15.20;;;9.68;;
78197;SDS011;67472;51.554;7.812;2023-06-01T10:54:25;23.48;;;11.13;;
78197;SDS011;67472;51.554;7.812;2023-06-01T10:57:20;18.15;;;9.68;;
78197;SDS011;67472;51.554;7.812;2023-06-01T11:00:09;20.00;;;10.68;;
78197;SDS011;67472;51.554;7.812;2023-06-01T11:03:01;17.67;;;10.32;;
78197;SDS011;67472;51.554;7.812;2023-06-01T11:05:49;25.20;;;11.40;;
78197;SDS011;67472;51.554;7.812;2023-06-01T11:11:56;23.38;;;11.80;;
78197;SDS011;67472;51.554;7.812;2023-06-01T11:17:56;18.73;;;11.38;;
78197;SDS011;67472;51.554;7.812;2023-06-01T11:20:43;19.58;;;10.77;;
78197;SDS011;67472;51.554;7.812;2023-06-01T11:23:30;15.82;;;11.32;;
78197;SDS011;67472;51.554;7.812;2023-06-01T11:26:19;23.40;;;11.95;;
78197;SDS011;67472;51.554;7.812;2023-06-01T11:29:10;19.90;;;10.68;;
78197;SDS011;67472;51.554;7.812;2023-06-01T11:31:58;15.40;;;11.20;;
78197;SDS011;67472;51.554;7.812;2023-06-01T11:34:46;18.20;;;11.55;;
78197;SDS011;67472;51.554;7.812;2023-06-01T11:37:34;15.32;;;9.70;;
78197;SDS011;67472;51.554;7.812;2023-06-01T11:40:21;13.50;;;9.02;;
78197;SDS011;67472;51.554;7.812;2023-06-01T11:43:08;15.90;;;9.95;;
78197;SDS011;67472;51.554;7.812;2023-06-01T11:46:00;15.30;;;10.45;;
78197;SDS011;67472;51.554;7.812;2023-06-01T11:48:57;18.00;;;9.68;;
78197;SDS011;67472;51.554;7.812;2023-06-01T11:51:46;15.57;;;9.55;;
78197;SDS011;67472;51.554;7.812;2023-06-01T11:54:34;16.15;;;9.88;;
78197;SDS011;67472;51.554;7.812;2023-06-01T11:57:22;20.42;;;11.05;;
78197;SDS011;67472;51.554;7.812;2023-06-01T12:00:10;20.52;;;11.25;;
78197;SDS011;67472;51.554;7.812;2023-06-01T12:03:05;24.08;;;11.30;;
78197;SDS011;67472;51.554;7.812;2023-06-01T12:05:52;18.33;;;11.32;;
78197;SDS011;67472;51.554;7.812;2023-06-01T12:08:39;19.88;;;10.70;;
78197;SDS011;67472;51.554;7.812;2023-06-01T12:11:27;14.73;;;10.10;;
78197;SDS011;67472;51.554;7.812;2023-06-01T12:14:13;19.60;;;10.52;;
78197;SDS011;67472;51.554;7.812;2023-06-01T12:17:01;20.92;;;10.80;;
78197;SDS011;67472;51.554;7.812;2023-06-01T12:19:49;19.88;;;11.07;;
78197;SDS011;67472;51.554;7.812;2023-06-01T12:22:36;20.73;;;12.35;;
78197;SDS011;67472;51.554;7.812;2023-06-01T12:25:22;23.52;;;11.55;;
78197;SDS011;67472;51.554;7.812;2023-06-01T12:28:10;29.17;;;12.52;;
78197;SDS011;67472;51.554;7.812;2023-06-01T12:31:09;20.20;;;11.27;;
78197;SDS011;67472;51.554;7.812;2023-06-01T12:33:57;20.08;;;11.88;;
78197;SDS011;67472;51.554;7.812;2023-06-01T12:36:43;16.73;;;11.00;;
78197;SDS011;67472;51.554;7.812;2023-06-01T12:39:33;17.08;;;10.77;;
78197;SDS011;67472;51.554;7.812;2023-06-01T12:42:34;19.58;;;10.95;;
78197;SDS011;67472;51.554;7.812;2023-06-01T12:45:22;19.95;;;11.48;;
78197;SDS011;67472;51.554;7.812;2023-06-01T12:48:09;20.20;;;11.20;;
78197;SDS011;67472;51.554;7.812;2023-06-01T12:51:15;17.38;;;10.52;;
78197;SDS011;67472;51.554;7.812;2023-06-01T12:54:01;21.85;;;10.75;;
78197;SDS011;67472;51.554;7.812;2023-06-01T12:56:48;17.63;;;10.48;;
78197;SDS011;67472;51.554;7.812;2023-06-01T12:59:34;15.10;;;10.40;;
78197;SDS011;67472;51.554;7.812;2023-06-01T13:02:22;18.77;;;10.23;;
78197;SDS011;67472;51.554;7.812;2023-06-01T13:05:10;9.90;;;8.43;;
78197;SDS011;67472;51.554;7.812;2023-06-01T13:07:57;18.63;;;11.02;;
78197;SDS011;67472;51.554;7.812;2023-06-01T13:10:44;16.98;;;11.32;;
78197;SDS011;67472;51.554;7.812;2023-06-01T13:13:30;15.23;;;10.65;;
78197;SDS011;67472;51.554;7.812;2023-06-01T13:16:16;15.25;;;10.18;;
78197;SDS011;67472;51.554;7.812;2023-06-01T13:19:04;18.92;;;10.85;;
78197;SDS011;67472;51.554;7.812;2023-06-01T13:21:53;17.60;;;11.10;;
78197;SDS011;67472;51.554;7.812;2023-06-01T13:24:40;19.75;;;10.60;;
78197;SDS011;67472;51.554;7.812;2023-06-01T13:27:27;16.20;;;10.07;;
78197;SDS011;67472;51.554;7.812;2023-06-01T13:30:13;19.48;;;10.80;;
78197;SDS011;67472;51.554;7.812;2023-06-01T13:33:00;20.20;;;10.60;;
78197;SDS011;67472;51.554;7.812;2023-06-01T13:35:48;16.35;;;10.23;;
78197;SDS011;67472;51.554;7.812;2023-06-01T13:38:34;20.40;;;11.88;;
78197;SDS011;67472;51.554;7.812;2023-06-01T13:41:20;17.98;;;10.93;;
78197;SDS011;67472;51.554;7.812;2023-06-01T13:44:07;16.13;;;9.10;;
78197;SDS011;67472;51.554;7.812;2023-06-01T13:46:53;21.98;;;10.57;;
78197;SDS011;67472;51.554;7.812;2023-06-01T13:49:40;19.30;;;11.30;;
78197;SDS011;67472;51.554;7.812;2023-06-01T13:52:28;21.58;;;11.35;;
78197;SDS011;67472;51.554;7.812;2023-06-01T13:55:14;16.55;;;10.95;;
78197;SDS011;67472;51.554;7.812;2023-06-01T13:58:00;19.38;;;11.27;;
78197;SDS011;67472;51.554;7.812;2023-06-01T14:00:47;14.23;;;10.27;;
78197;SDS011;67472;51.554;7.812;2023-06-01T14:03:33;16.23;;;10.95;;
78197;SDS011;67472;51.554;7.812;2023-06-01T14:06:19;17.30;;;10.63;;
78197;SDS011;67472;51.554;7.812;2023-06-01T14:09:07;13.35;;;10.00;;
78197;SDS011;67472;51.554;7.812;2023-06-01T14:11:55;15.30;;;10.60;;
78197;SDS011;67472;51.554;7.812;2023-06-01T14:14:42;21.42;;;11.20;;
78197;SDS011;67472;51.554;7.812;2023-06-01T14:17:28;13.05;;;11.02;;
78197;SDS011;67472;51.554;7.812;2023-06-01T14:20:14;13.55;;;10.55;;
78197;SDS011;67472;51.554;7.812;2023-06-01T14:23:00;17.15;;;13.32;;
78197;SDS011;67472;51.554;7.812;2023-06-01T14:25:49;15.82;;;11.85;;
78197;SDS011;67472;51.554;7.812;2023-06-01T14:28:36;14.52;;;11.43;;
78197;SDS011;67472;51.554;7.812;2023-06-01T14:31:23;16.05;;;11.23;;
78197;SDS011;67472;51.554;7.812;2023-06-01T14:34:09;14.90;;;9.98;;
78197;SDS011;67472;51.554;7.812;2023-06-01T14:36:56;14.98;;;9.63;;
78197;SDS011;67472;51.554;7.812;2023-06-01T14:39:42;14.43;;;9.85;;
78197;SDS011;67472;51.554;7.812;2023-06-01T14:42:29;14.32;;;9.82;;
78197;SDS011;67472;51.554;7.812;2023-06-01T14:45:16;16.85;;;10.57;;
78197;SDS011;67472;51.554;7.812;2023-06-01T14:48:03;17.20;;;10.80;;
78197;SDS011;67472;51.554;7.812;2023-06-01T14:50:50;10.60;;;8.90;;
78197;SDS011;67472;51.554;7.812;2023-06-01T14:53:37;11.55;;;8.95;;
78197;SDS011;67472;51.554;7.812;2023-06-01T14:56:24;12.70;;;9.32;;
78197;SDS011;67472;51.554;7.812;2023-06-01T14:59:12;20.52;;;10.05;;
78197;SDS011;67472;51.554;7.812;2023-06-01T15:01:58;12.50;;;9.85;;
78197;SDS011;67472;51.554;7.812;2023-06-01T15:04:46;14.93;;;10.45;;
78197;SDS011;67472;51.554;7.812;2023-06-01T15:07:32;12.30;;;8.93;;
78197;SDS011;67472;51.554;7.812;2023-06-01T15:10:18;12.55;;;10.52;;
78197;SDS011;67472;51.554;7.812;2023-06-01T15:13:05;18.00;;;10.27;;
78197;SDS011;67472;51.554;7.812;2023-06-01T15:15:52;13.70;;;9.18;;
78197;SDS011;67472;51.554;7.812;2023-06-01T15:18:39;18.80;;;10.32;;
78197;SDS011;67472;51.554;7.812;2023-06-01T15:21:25;14.75;;;9.45;;
78197;SDS011;67472;51.554;7.812;2023-06-01T15:24:12;12.15;;;8.75;;
78197;SDS011;67472;51.554;7.812;2023-06-01T15:26:58;10.98;;;9.10;;
78197;SDS011;67472;51.554;7.812;2023-06-01T15:29:45;13.13;;;8.45;;
78197;SDS011;67472;51.554;7.812;2023-06-01T15:32:33;14.43;;;7.97;;
78197;SDS011;67472;51.554;7.812;2023-06-01T15:35:20;14.82;;;7.70;;
78197;SDS011;67472;51.554;7.812;2023-06-01T15:38:07;13.35;;;8.63;;
78197;SDS011;67472;51.554;7.812;2023-06-01T15:40:53;9.85;;;8.25;;
78197;SDS011;67472;51.554;7.812;2023-06-01T15:43:40;10.93;;;8.27;;
78197;SDS011;67472;51.554;7.812;2023-06-01T15:46:26;12.90;;;7.95;;
78197;SDS011;67472;51.554;7.812;2023-06-01T15:49:14;9.93;;;8.30;;
78197;SDS011;67472;51.554;7.812;2023-06-01T15:52:00;11.57;;;7.65;;
78197;SDS011;67472;51.554;7.812;2023-06-01T15:54:48;12.55;;;7.55;;
78197;SDS011;67472;51.554;7.812;2023-06-01T15:57:34;14.30;;;7.70;;
78197;SDS011;67472;51.554;7.812;2023-06-01T16:00:21;8.25;;;6.78;;
78197;SDS011;67472;51.554;7.812;2023-06-01T16:03:07;10.57;;;7.38;;
78197;SDS011;67472;51.554;7.812;2023-06-01T16:05:55;11.13;;;7.03;;
78197;SDS011;67472;51.554;7.812;2023-06-01T16:08:41;9.65;;;7.28;;
78197;SDS011;67472;51.554;7.812;2023-06-01T16:11:28;10.75;;;7.38;;
78197;SDS011;67472;51.554;7.812;2023-06-01T16:14:14;10.18;;;7.20;;
78197;SDS011;67472;51.554;7.812;2023-06-01T16:17:00;9.70;;;6.65;;
78197;SDS011;67472;51.554;7.812;2023-06-01T16:19:47;10.80;;;6.72;;
78197;SDS011;67472;51.554;7.812;2023-06-01T16:22:34;10.73;;;6.55;;
78197;SDS011;67472;51.554;7.812;2023-06-01T16:25:21;7.47;;;6.28;;
78197;SDS011;67472;51.554;7.812;2023-06-01T16:28:10;7.70;;;6.05;;
78197;SDS011;67472;51.554;7.812;2023-06-01T16:30:56;6.90;;;5.85;;
78197;SDS011;67472;51.554;7.812;2023-06-01T16:33:43;7.70;;;5.90;;
78197;SDS011;67472;51.554;7.812;2023-06-01T16:36:29;6.32;;;4.85;;
78197;SDS011;67472;51.554;7.812;2023-06-01T16:39:17;6.35;;;4.72;;